sensor_id;sensor_type;location;lat;lon;timestamp;pressure;altitude;pressure_sealevel;temperature;humidity
71966;BME280;59836;52.132;5.442;2022-09-13T00:02:02;101053.25;;;17.38;82.56
71966;BME280;59836;52.132;5.442;2022-09-13T00:04:29;101044.53;;;17.36;82.81
71966;BME280;59836;52.132;5.442;2022-09-13T00:06:55;101041.78;;;17.36;82.92
71966;BME280;59836;52.132;5.442;2022-09-13T00:09:23;101046.16;;;17.37;82.81
71966;BME280;59836;52.132;5.442;2022-09-13T00:11:50;101040.66;;;17.37;83.33
71966;BME280;59836;52.132;5.442;2022-09-13T00:14:18;101039.06;;;17.36;83.31
71966;BME280;59836;52.132;5.442;2022-09-13T00:16:47;101048.41;;;17.35;83.58
71966;BME280;59836;52.132;5.442;2022-09-13T00:19:17;101041.78;;;17.36;83.79
71966;BME280;59836;52.132;5.442;2022-09-13T00:21:45;101050.81;;;17.37;84.00
71966;BME280;59836;52.132;5.442;2022-09-13T00:24:11;101046.16;;;17.37;83.88
71966;BME280;59836;52.132;5.442;2022-09-13T00:26:39;101043.41;;;17.37;83.74
71966;BME280;59836;52.132;5.442;2022-09-13T00:29:05;101029.22;;;17.35;83.12
71966;BME280;59836;52.132;5.442;2022-09-13T00:31:33;101030.31;;;17.34;83.61
71966;BME280;59836;52.132;5.442;2022-09-13T00:33:59;101021.28;;;17.34;83.25
71966;BME280;59836;52.132;5.442;2022-09-13T00:36:28;101039.66;;;17.33;82.85
71966;BME280;59836;52.132;5.442;2022-09-13T00:38:55;101050.31;;;17.35;83.47
71966;BME280;59836;52.132;5.442;2022-09-13T00:41:22;101035.50;;;17.36;83.88
71966;BME280;59836;52.132;5.442;2022-09-13T00:43:57;101035.81;;;17.34;83.79
71966;BME280;59836;52.132;5.442;2022-09-13T00:46:36;101034.19;;;17.33;83.72
71966;BME280;59836;52.132;5.442;2022-09-13T00:49:13;101035.59;;;17.31;83.78
71966;BME280;59836;52.132;5.442;2022-09-13T00:51:44;101038.66;;;17.29;83.88
71966;BME280;59836;52.132;5.442;2022-09-13T00:54:12;101036.56;;;17.26;84.42
71966;BME280;59836;52.132;5.442;2022-09-13T00:56:44;101029.94;;;17.27;84.48
71966;BME280;59836;52.132;5.442;2022-09-13T00:59:14;101026.09;;;17.28;84.62
71966;BME280;59836;52.132;5.442;2022-09-13T01:01:48;101028.81;;;17.28;84.52
71966;BME280;59836;52.132;5.442;2022-09-13T01:04:18;101023.66;;;17.26;84.77
71966;BME280;59836;52.132;5.442;2022-09-13T01:06:46;101019.00;;;17.27;84.70
71966;BME280;59836;52.132;5.442;2022-09-13T01:09:16;101025.59;;;17.26;84.82
71966;BME280;59836;52.132;5.442;2022-09-13T01:11:52;101030.56;;;17.24;84.97
71966;BME280;59836;52.132;5.442;2022-09-13T01:14:31;101026.72;;;17.25;85.31
71966;BME280;59836;52.132;5.442;2022-09-13T01:16:58;101026.72;;;17.25;85.30
71966;BME280;59836;52.132;5.442;2022-09-13T01:19:25;101027.31;;;17.22;85.27
71966;BME280;59836;52.132;5.442;2022-09-13T01:24:43;101026.22;;;17.23;85.21
71966;BME280;59836;52.132;5.442;2022-09-13T01:28:16;101029.56;;;17.20;85.68
71966;BME280;59836;52.132;5.442;2022-09-13T01:30:21;101030.19;;;17.17;85.79
71966;BME280;59836;52.132;5.442;2022-09-13T01:38:46;101042.16;;;17.21;85.77
71966;BME280;59836;52.132;5.442;2022-09-13T01:41:30;101031.19;;;17.21;85.18
71966;BME280;59836;52.132;5.442;2022-09-13T01:44:33;101035.22;;;17.23;85.42
71966;BME280;59836;52.132;5.442;2022-09-13T01:47:26;101033.94;;;17.21;84.90
71966;BME280;59836;52.132;5.442;2022-09-13T02:00:46;101027.00;;;17.23;85.67
71966;BME280;59836;52.132;5.442;2022-09-13T02:03:20;101028.13;;;17.22;85.84
71966;BME280;59836;52.132;5.442;2022-09-13T02:05:54;101032.31;;;17.20;85.62
71966;BME280;59836;52.132;5.442;2022-09-13T02:08:40;101031.97;;;17.21;85.05
71966;BME280;59836;52.132;5.442;2022-09-13T02:11:14;101027.94;;;17.19;85.59
71966;BME280;59836;52.132;5.442;2022-09-13T02:13:48;101009.38;;;17.16;85.51
71966;BME280;59836;52.132;5.442;2022-09-13T02:16:30;101021.47;;;17.15;85.65
71966;BME280;59836;52.132;5.442;2022-09-13T02:19:02;101008.06;;;17.13;85.96
71966;BME280;59836;52.132;5.442;2022-09-13T02:21:34;101018.22;;;17.13;85.80
71966;BME280;59836;52.132;5.442;2022-09-13T02:24:10;101018.22;;;17.13;85.75
71966;BME280;59836;52.132;5.442;2022-09-13T02:26:40;101013.03;;;17.11;86.04
71966;BME280;59836;52.132;5.442;2022-09-13T02:29:13;101009.50;;;17.10;85.86
71966;BME280;59836;52.132;5.442;2022-09-13T02:31:50;101024.31;;;17.09;85.92
71966;BME280;59836;52.132;5.442;2022-09-13T02:34:30;101025.94;;;17.10;85.90
71966;BME280;59836;52.132;5.442;2022-09-13T02:37:00;101025.94;;;17.10;86.46
71966;BME280;59836;52.132;5.442;2022-09-13T02:39:28;101033.66;;;17.08;86.25
71966;BME280;59836;52.132;5.442;2022-09-13T02:44:45;101039.16;;;17.08;86.49
71966;BME280;59836;52.132;5.442;2022-09-13T02:47:56;101031.22;;;17.07;86.39
71966;BME280;59836;52.132;5.442;2022-09-13T02:50:45;101032.66;;;17.04;86.45
71966;BME280;59836;52.132;5.442;2022-09-13T02:53:25;101034.28;;;17.05;86.66
71966;BME280;59836;52.132;5.442;2022-09-13T02:56:15;101032.16;;;17.02;86.53
71966;BME280;59836;52.132;5.442;2022-09-13T02:59:07;101034.91;;;17.02;86.88
71966;BME280;59836;52.132;5.442;2022-09-13T03:01:39;101032.66;;;17.04;86.67
71966;BME280;59836;52.132;5.442;2022-09-13T03:04:07;101033.78;;;17.03;86.69
71966;BME280;59836;52.132;5.442;2022-09-13T03:06:36;101020.38;;;17.02;87.01
71966;BME280;59836;52.132;5.442;2022-09-13T03:09:04;101033.78;;;17.03;86.92
71966;BME280;59836;52.132;5.442;2022-09-13T03:17:42;101024.84;;;16.97;86.71
71966;BME280;59836;52.132;5.442;2022-09-13T03:20:52;101030.03;;;16.99;86.92
71966;BME280;59836;52.132;5.442;2022-09-13T03:31:32;101017.25;;;16.94;87.73
71966;BME280;59836;52.132;5.442;2022-09-13T03:34:32;101018.88;;;16.95;87.53
71966;BME280;59836;52.132;5.442;2022-09-13T03:37:15;101010.94;;;16.94;87.56
71966;BME280;59836;52.132;5.442;2022-09-13T03:39:51;101021.91;;;16.94;87.69
71966;BME280;59836;52.132;5.442;2022-09-13T03:42:25;101010.94;;;16.94;87.82
71966;BME280;59836;52.132;5.442;2022-09-13T03:44:55;101019.16;;;16.94;87.41
71966;BME280;59836;52.132;5.442;2022-09-13T03:47:24;101013.78;;;16.89;87.60
71966;BME280;59836;52.132;5.442;2022-09-13T03:49:53;101013.50;;;16.90;87.59
71966;BME280;59836;52.132;5.442;2022-09-13T03:52:23;101017.66;;;16.88;87.46
71966;BME280;59836;52.132;5.442;2022-09-13T03:54:51;101007.19;;;16.90;87.71
71966;BME280;59836;52.132;5.442;2022-09-13T03:57:20;100998.97;;;16.90;87.78
71966;BME280;59836;52.132;5.442;2022-09-13T03:59:56;100997.84;;;16.91;87.62
71966;BME280;59836;52.132;5.442;2022-09-13T04:02:24;101007.69;;;16.92;87.88
71966;BME280;59836;52.132;5.442;2022-09-13T04:04:51;101003.66;;;16.89;87.42
71966;BME280;59836;52.132;5.442;2022-09-13T04:07:20;101005.28;;;16.90;87.64
71966;BME280;59836;52.132;5.442;2022-09-13T04:09:47;101010.44;;;16.92;87.55
71966;BME280;59836;52.132;5.442;2022-09-13T04:12:16;101022.50;;;16.91;87.19
71966;BME280;59836;52.132;5.442;2022-09-13T04:14:43;101005.28;;;16.90;87.11
71966;BME280;59836;52.132;5.442;2022-09-13T04:17:10;101015.41;;;16.90;87.35
71966;BME280;59836;52.132;5.442;2022-09-13T04:19:39;101013.78;;;16.89;87.30
71966;BME280;59836;52.132;5.442;2022-09-13T04:22:07;101016.53;;;16.89;87.30
71966;BME280;59836;52.132;5.442;2022-09-13T04:24:33;101010.56;;;16.87;87.31
71966;BME280;59836;52.132;5.442;2022-09-13T04:27:02;101016.03;;;16.87;87.37
71966;BME280;59836;52.132;5.442;2022-09-13T04:29:31;101023.44;;;16.86;87.18
71966;BME280;59836;52.132;5.442;2022-09-13T04:31:58;101016.66;;;16.83;87.25
71966;BME280;59836;52.132;5.442;2022-09-13T04:34:26;101024.06;;;16.83;87.26
71966;BME280;59836;52.132;5.442;2022-09-13T04:36:54;101019.38;;;16.83;87.04
71966;BME280;59836;52.132;5.442;2022-09-13T04:39:21;101035.31;;;16.81;87.08
71966;BME280;59836;52.132;5.442;2022-09-13T04:41:49;101029.84;;;16.81;87.42
71966;BME280;59836;52.132;5.442;2022-09-13T04:44:17;101034.53;;;16.81;87.21
71966;BME280;59836;52.132;5.442;2022-09-13T04:46:48;101036.94;;;16.82;87.35
71966;BME280;59836;52.132;5.442;2022-09-13T04:49:18;101051.13;;;16.85;87.25
71966;BME280;59836;52.132;5.442;2022-09-13T04:51:46;101055.00;;;16.83;87.30
71966;BME280;59836;52.132;5.442;2022-09-13T04:54:16;101060.47;;;16.83;87.59
71966;BME280;59836;52.132;5.442;2022-09-13T04:56:48;101056.63;;;16.85;87.45
71966;BME280;59836;52.132;5.442;2022-09-13T04:59:15;101059.06;;;16.86;87.55
71966;BME280;59836;52.132;5.442;2022-09-13T05:01:43;101066.16;;;16.87;87.79
71966;BME280;59836;52.132;5.442;2022-09-13T05:04:15;101059.56;;;16.88;87.57
71966;BME280;59836;52.132;5.442;2022-09-13T05:06:42;101057.63;;;16.89;87.77
71966;BME280;59836;52.132;5.442;2022-09-13T05:09:14;101048.28;;;16.90;87.88
71966;BME280;59836;52.132;5.442;2022-09-13T05:11:42;101063.59;;;16.91;87.94
71966;BME280;59836;52.132;5.442;2022-09-13T05:14:10;101057.00;;;16.92;88.24
71966;BME280;59836;52.132;5.442;2022-09-13T05:16:37;101055.59;;;16.94;88.00
71966;BME280;59836;52.132;5.442;2022-09-13T05:19:05;101057.22;;;16.95;88.01
71966;BME280;59836;52.132;5.442;2022-09-13T05:21:33;101050.13;;;16.94;87.85
71966;BME280;59836;52.132;5.442;2022-09-13T05:23:59;101050.13;;;16.94;87.72
71966;BME280;59836;52.132;5.442;2022-09-13T05:26:28;101054.78;;;16.94;87.64
71966;BME280;59836;52.132;5.442;2022-09-13T05:28:59;101058.34;;;16.94;87.72
71966;BME280;59836;52.132;5.442;2022-09-13T05:31:28;101056.41;;;16.95;88.02
71966;BME280;59836;52.132;5.442;2022-09-13T05:34:00;101074.47;;;16.96;87.93
71966;BME280;59836;52.132;5.442;2022-09-13T05:36:29;101069.50;;;16.98;88.05
71966;BME280;59836;52.132;5.442;2022-09-13T05:38:55;101071.94;;;17.00;88.05
71966;BME280;59836;52.132;5.442;2022-09-13T05:41:43;101066.16;;;17.01;88.15
71966;BME280;59836;52.132;5.442;2022-09-13T05:44:10;101067.78;;;17.02;88.25
71966;BME280;59836;52.132;5.442;2022-09-13T05:46:41;101071.81;;;17.05;88.29
71966;BME280;59836;52.132;5.442;2022-09-13T05:49:10;101077.28;;;17.05;88.05
71966;BME280;59836;52.132;5.442;2022-09-13T05:51:41;101076.69;;;17.08;88.09
71966;BME280;59836;52.132;5.442;2022-09-13T05:54:10;101083.78;;;17.09;88.19
71966;BME280;59836;52.132;5.442;2022-09-13T05:56:39;101080.75;;;17.10;88.50
71966;BME280;59836;52.132;5.442;2022-09-13T05:59:11;101083.16;;;17.12;88.41
71966;BME280;59836;52.132;5.442;2022-09-13T06:01:39;101085.63;;;17.14;88.34
71966;BME280;59836;52.132;5.442;2022-09-13T06:04:07;101079.81;;;17.15;88.43
71966;BME280;59836;52.132;5.442;2022-09-13T06:06:34;101074.03;;;17.17;88.54
71966;BME280;59836;52.132;5.442;2022-09-13T06:09:02;101069.34;;;17.17;88.29
71966;BME280;59836;52.132;5.442;2022-09-13T06:11:30;101083.25;;;17.21;88.70
71966;BME280;59836;52.132;5.442;2022-09-13T06:13:58;101081.03;;;17.23;88.55
71966;BME280;59836;52.132;5.442;2022-09-13T06:16:25;101077.16;;;17.24;88.66
71966;BME280;59836;52.132;5.442;2022-09-13T06:18:53;101076.53;;;17.27;88.99
71966;BME280;59836;52.132;5.442;2022-09-13T06:21:21;101084.16;;;17.30;88.48
71966;BME280;59836;52.132;5.442;2022-09-13T06:23:54;101073.38;;;17.34;87.98
71966;BME280;59836;52.132;5.442;2022-09-13T06:26:24;101080.69;;;17.38;88.55
71966;BME280;59836;52.132;5.442;2022-09-13T06:28:53;101080.06;;;17.41;88.26
71966;BME280;59836;52.132;5.442;2022-09-13T06:31:23;101085.72;;;17.45;88.09
71966;BME280;59836;52.132;5.442;2022-09-13T06:33:56;101078.81;;;17.48;88.32
71966;BME280;59836;52.132;5.442;2022-09-13T06:36:24;101084.47;;;17.51;88.03
71966;BME280;59836;52.132;5.442;2022-09-13T06:38:51;101085.78;;;17.54;87.54
71966;BME280;59836;52.132;5.442;2022-09-13T06:41:21;101082.41;;;17.57;87.57
71966;BME280;59836;52.132;5.442;2022-09-13T06:43:57;101095.50;;;17.60;87.50
71966;BME280;59836;52.132;5.442;2022-09-13T06:46:27;101086.47;;;17.60;87.55
71966;BME280;59836;52.132;5.442;2022-09-13T06:49:01;101090.84;;;17.61;87.27
71966;BME280;59836;52.132;5.442;2022-09-13T06:51:29;101093.25;;;17.62;87.48
71966;BME280;59836;52.132;5.442;2022-09-13T06:53:57;101088.28;;;17.64;87.27
71966;BME280;59836;52.132;5.442;2022-09-13T06:56:27;101086.03;;;17.66;86.83
71966;BME280;59836;52.132;5.442;2022-09-13T06:58:57;101083.78;;;17.68;86.93
71966;BME280;59836;52.132;5.442;2022-09-13T07:01:33;101081.53;;;17.70;86.93
71966;BME280;59836;52.132;5.442;2022-09-13T07:04:05;101079.28;;;17.73;86.47
71966;BME280;59836;52.132;5.442;2022-09-13T07:06:37;101078.66;;;17.76;86.40
71966;BME280;59836;52.132;5.442;2022-09-13T07:09:06;101087.41;;;17.78;86.12
71966;BME280;59836;52.132;5.442;2022-09-13T07:11:36;101079.16;;;17.78;86.66
71966;BME280;59836;52.132;5.442;2022-09-13T07:14:04;101087.28;;;17.83;86.15
71966;BME280;59836;52.132;5.442;2022-09-13T07:16:35;101085.53;;;17.87;85.96
71966;BME280;59836;52.132;5.442;2022-09-13T07:19:05;101087.00;;;17.93;86.16
71966;BME280;59836;52.132;5.442;2022-09-13T07:21:34;101075.09;;;17.98;86.77
71966;BME280;59836;52.132;5.442;2022-09-13T07:24:01;101067.88;;;18.02;86.36
71966;BME280;59836;52.132;5.442;2022-09-13T07:26:29;101071.31;;;18.08;86.23
71966;BME280;59836;52.132;5.442;2022-09-13T07:29:06;101076.31;;;18.14;86.61
71966;BME280;59836;52.132;5.442;2022-09-13T07:31:43;101081.69;;;18.20;86.04
71966;BME280;59836;52.132;5.442;2022-09-13T07:34:16;101079.63;;;18.25;86.45
71966;BME280;59836;52.132;5.442;2022-09-13T07:36:44;101083.84;;;18.32;86.92
71966;BME280;59836;52.132;5.442;2022-09-13T07:39:14;101090.31;;;18.36;86.14
71966;BME280;59836;52.132;5.442;2022-09-13T07:41:49;101090.19;;;18.41;86.38
71966;BME280;59836;52.132;5.442;2022-09-13T07:44:17;101094.22;;;18.43;86.62
71966;BME280;59836;52.132;5.442;2022-09-13T07:46:45;101090.53;;;18.48;86.88
71966;BME280;59836;52.132;5.442;2022-09-13T07:49:16;101095.91;;;18.53;86.30
71966;BME280;59836;52.132;5.442;2022-09-13T07:51:46;101092.19;;;18.58;86.58
71966;BME280;59836;52.132;5.442;2022-09-13T07:54:17;101101.91;;;18.64;87.13
71966;BME280;59836;52.132;5.442;2022-09-13T07:56:44;101100.44;;;18.67;86.50
71966;BME280;59836;52.132;5.442;2022-09-13T07:59:13;101104.66;;;18.73;86.50
71966;BME280;59836;52.132;5.442;2022-09-13T08:01:48;101104.38;;;18.83;86.34
71966;BME280;59836;52.132;5.442;2022-09-13T08:04:18;101111.81;;;18.92;86.06
71966;BME280;59836;52.132;5.442;2022-09-13T08:06:47;101113.31;;;18.98;86.21
71966;BME280;59836;52.132;5.442;2022-09-13T08:09:16;101107.19;;;19.01;85.60
71966;BME280;59836;52.132;5.442;2022-09-13T08:11:53;101105.09;;;19.07;85.83
71966;BME280;59836;52.132;5.442;2022-09-13T08:14:21;101106.53;;;19.13;85.41
71966;BME280;59836;52.132;5.442;2022-09-13T08:16:49;101105.25;;;19.19;85.24
71966;BME280;59836;52.132;5.442;2022-09-13T08:19:17;101103.16;;;19.25;85.17
71966;BME280;59836;52.132;5.442;2022-09-13T08:21:44;101105.28;;;19.28;84.67
71966;BME280;59836;52.132;5.442;2022-09-13T08:24:16;101102.19;;;19.29;84.56
71966;BME280;59836;52.132;5.442;2022-09-13T08:26:44;101108.50;;;19.30;84.84
71966;BME280;59836;52.132;5.442;2022-09-13T08:29:11;101107.38;;;19.31;84.56
71966;BME280;59836;52.132;5.442;2022-09-13T08:31:39;101114.50;;;19.32;84.63
71966;BME280;59836;52.132;5.442;2022-09-13T08:34:09;101104.28;;;19.32;85.11
71966;BME280;59836;52.132;5.442;2022-09-13T08:36:39;101106.09;;;19.37;85.11
71966;BME280;59836;52.132;5.442;2022-09-13T08:39:08;101110.13;;;19.40;84.40
71966;BME280;59836;52.132;5.442;2022-09-13T08:41:54;101110.94;;;19.40;84.27
71966;BME280;59836;52.132;5.442;2022-09-13T08:49:36;101114.19;;;19.42;84.12
71966;BME280;59836;52.132;5.442;2022-09-13T08:55:18;101113.84;;;19.53;83.41
71966;BME280;59836;52.132;5.442;2022-09-13T08:57:54;101110.94;;;19.58;83.27
71966;BME280;59836;52.132;5.442;2022-09-13T09:00:37;101110.94;;;19.58;83.39
71966;BME280;59836;52.132;5.442;2022-09-13T09:05:48;101122.44;;;19.60;82.97
71966;BME280;59836;52.132;5.442;2022-09-13T09:11:17;101123.06;;;19.66;82.51
71966;BME280;59836;52.132;5.442;2022-09-13T09:13:58;101138.09;;;19.68;82.29
71966;BME280;59836;52.132;5.442;2022-09-13T09:16:38;101127.59;;;19.70;82.04
71966;BME280;59836;52.132;5.442;2022-09-13T09:22:08;101137.47;;;19.71;81.98
71966;BME280;59836;52.132;5.442;2022-09-13T09:24:39;101140.69;;;19.73;81.47
71966;BME280;59836;52.132;5.442;2022-09-13T09:27:14;101140.22;;;19.71;80.52
71966;BME280;59836;52.132;5.442;2022-09-13T09:29:43;101135.84;;;19.70;80.57
71966;BME280;59836;52.132;5.442;2022-09-13T09:38:41;101131.47;;;19.69;80.31
71966;BME280;59836;52.132;5.442;2022-09-13T09:41:14;101135.03;;;19.70;80.27
71966;BME280;59836;52.132;5.442;2022-09-13T09:44:17;101131.94;;;19.71;80.09
71966;BME280;59836;52.132;5.442;2022-09-13T09:47:15;101130.81;;;19.72;80.08
71966;BME280;59836;52.132;5.442;2022-09-13T09:50:02;101122.56;;;19.72;79.79
71966;BME280;59836;52.132;5.442;2022-09-13T09:52:43;101122.56;;;19.72;79.33
71966;BME280;59836;52.132;5.442;2022-09-13T09:57:50;101107.97;;;19.81;79.40
71966;BME280;59836;52.132;5.442;2022-09-13T10:00:17;101103.94;;;19.87;77.78
71966;BME280;59836;52.132;5.442;2022-09-13T10:02:44;101108.50;;;19.91;78.74
71966;BME280;59836;52.132;5.442;2022-09-13T10:05:18;101106.38;;;19.97;77.62
71966;BME280;59836;52.132;5.442;2022-09-13T10:07:57;101103.31;;;19.99;78.37
71966;BME280;59836;52.132;5.442;2022-09-13T10:13:06;101110.72;;;20.07;78.12
71966;BME280;59836;52.132;5.442;2022-09-13T10:15:34;101109.91;;;20.06;76.89
71966;BME280;59836;52.132;5.442;2022-09-13T10:18:16;101109.72;;;20.12;77.86
71966;BME280;59836;52.132;5.442;2022-09-13T10:21:22;101110.22;;;20.14;77.35
71966;BME280;59836;52.132;5.442;2022-09-13T10:23:50;101104.19;;;20.20;77.18
71966;BME280;59836;52.132;5.442;2022-09-13T10:26:24;101104.34;;;20.24;78.30
71966;BME280;59836;52.132;5.442;2022-09-13T10:29:01;101105.31;;;20.28;76.83
71966;BME280;59836;52.132;5.442;2022-09-13T10:31:35;101110.00;;;20.28;76.61
71966;BME280;59836;52.132;5.442;2022-09-13T10:34:13;101108.06;;;20.28;76.63
71966;BME280;59836;52.132;5.442;2022-09-13T10:36:58;101107.41;;;20.31;76.88
71966;BME280;59836;52.132;5.442;2022-09-13T10:39:30;101109.03;;;20.32;75.52
71966;BME280;59836;52.132;5.442;2022-09-13T10:42:00;101109.81;;;20.33;76.14
71966;BME280;59836;52.132;5.442;2022-09-13T10:46:59;101099.28;;;20.35;76.20
71966;BME280;59836;52.132;5.442;2022-09-13T10:49:50;101099.75;;;20.37;75.75
71966;BME280;59836;52.132;5.442;2022-09-13T10:52:41;101101.06;;;20.40;76.10
71966;BME280;59836;52.132;5.442;2022-09-13T11:00:14;101102.97;;;20.48;75.54
71966;BME280;59836;52.132;5.442;2022-09-13T11:05:45;101096.63;;;20.47;74.49
71966;BME280;59836;52.132;5.442;2022-09-13T11:16:48;101082.34;;;20.54;73.42
71966;BME280;59836;52.132;5.442;2022-09-13T11:22:25;101085.66;;;20.69;73.82
71966;BME280;59836;52.132;5.442;2022-09-13T11:25:08;101080.63;;;20.79;74.19
71966;BME280;59836;52.132;5.442;2022-09-13T11:27:59;101083.09;;;20.93;73.01
71966;BME280;59836;52.132;5.442;2022-09-13T11:30:46;101088.63;;;20.93;72.18
71966;BME280;59836;52.132;5.442;2022-09-13T11:39:44;101085.47;;;20.74;72.14
71966;BME280;59836;52.132;5.442;2022-09-13T11:42:31;101075.25;;;20.74;71.30
71966;BME280;59836;52.132;5.442;2022-09-13T11:45:25;101077.97;;;20.83;71.50
71966;BME280;59836;52.132;5.442;2022-09-13T11:53:32;101080.06;;;20.86;69.95
71966;BME280;59836;52.132;5.442;2022-09-13T11:56:05;101078.41;;;20.94;69.03
71966;BME280;59836;52.132;5.442;2022-09-13T11:58:56;101071.59;;;20.91;69.23
71966;BME280;59836;52.132;5.442;2022-09-13T12:01:33;101074.25;;;20.88;69.08
71966;BME280;59836;52.132;5.442;2022-09-13T12:04:19;101069.88;;;20.87;68.61
71966;BME280;59836;52.132;5.442;2022-09-13T12:06:58;101068.38;;;20.89;68.97
71966;BME280;59836;52.132;5.442;2022-09-13T12:09:52;101063.81;;;20.93;68.26
71966;BME280;59836;52.132;5.442;2022-09-13T12:12:30;101074.72;;;20.90;67.69
71966;BME280;59836;52.132;5.442;2022-09-13T12:15:03;101063.81;;;20.93;67.59
71966;BME280;59836;52.132;5.442;2022-09-13T12:17:39;101067.31;;;21.03;67.55
71966;BME280;59836;52.132;5.442;2022-09-13T12:20:33;101060.13;;;21.11;67.53
71966;BME280;59836;52.132;5.442;2022-09-13T12:23:06;101067.72;;;21.14;67.41
71966;BME280;59836;52.132;5.442;2022-09-13T12:26:01;101068.13;;;21.24;67.96
71966;BME280;59836;52.132;5.442;2022-09-13T12:28:45;101076.19;;;21.30;65.28
71966;BME280;59836;52.132;5.442;2022-09-13T12:31:28;101081.03;;;21.33;65.18
71966;BME280;59836;52.132;5.442;2022-09-13T12:33:57;101070.47;;;21.35;63.82
71966;BME280;59836;52.132;5.442;2022-09-13T12:39:52;101071.41;;;21.39;63.46
71966;BME280;59836;52.132;5.442;2022-09-13T12:48:56;101075.53;;;21.33;64.59
71966;BME280;59836;52.132;5.442;2022-09-13T12:52:00;101071.94;;;21.32;63.71
71966;BME280;59836;52.132;5.442;2022-09-13T12:57:39;101062.47;;;21.42;63.69
71966;BME280;59836;52.132;5.442;2022-09-13T13:00:23;101058.66;;;21.47;62.54
71966;BME280;59836;52.132;5.442;2022-09-13T13:03:03;101057.66;;;21.51;62.29
71966;BME280;59836;52.132;5.442;2022-09-13T13:05:38;101057.19;;;21.49;62.74
71966;BME280;59836;52.132;5.442;2022-09-13T13:08:25;101057.41;;;21.44;62.83
71966;BME280;59836;52.132;5.442;2022-09-13T13:11:01;101067.16;;;21.42;62.83
71966;BME280;59836;52.132;5.442;2022-09-13T13:13:36;101067.25;;;21.33;62.87
71966;BME280;59836;52.132;5.442;2022-09-13T13:16:26;101069.06;;;21.29;64.18
71966;BME280;59836;52.132;5.442;2022-09-13T13:18:57;101065.94;;;21.30;64.61
71966;BME280;59836;52.132;5.442;2022-09-13T13:21:28;101062.53;;;21.33;63.41
71966;BME280;59836;52.132;5.442;2022-09-13T13:26:43;101058.28;;;21.36;63.68
71966;BME280;59836;52.132;5.442;2022-09-13T13:29:37;101052.09;;;21.39;63.54
71966;BME280;59836;52.132;5.442;2022-09-13T13:32:09;101046.56;;;21.39;61.99
71966;BME280;59836;52.132;5.442;2022-09-13T13:34:47;101050.47;;;21.38;63.69
71966;BME280;59836;52.132;5.442;2022-09-13T13:39:47;101045.66;;;21.35;61.91
71966;BME280;59836;52.132;5.442;2022-09-13T13:42:30;101048.72;;;21.33;62.50
71966;BME280;59836;52.132;5.442;2022-09-13T13:45:12;101050.22;;;21.31;61.27
71966;BME280;59836;52.132;5.442;2022-09-13T13:47:51;101053.31;;;21.29;62.89
71966;BME280;59836;52.132;5.442;2022-09-13T13:50:21;101055.13;;;21.25;62.60
71966;BME280;59836;52.132;5.442;2022-09-13T13:52:57;101056.81;;;21.17;61.59
71966;BME280;59836;52.132;5.442;2022-09-13T13:55:47;101073.56;;;21.12;62.52
71966;BME280;59836;52.132;5.442;2022-09-13T13:58:44;101065.78;;;21.14;63.24
71966;BME280;59836;52.132;5.442;2022-09-13T14:01:22;101060.41;;;21.18;62.69
71966;BME280;59836;52.132;5.442;2022-09-13T14:13:20;101066.31;;;21.29;62.42
71966;BME280;59836;52.132;5.442;2022-09-13T14:18:53;101055.47;;;21.23;60.40
71966;BME280;59836;52.132;5.442;2022-09-13T14:21:29;101057.28;;;21.19;59.62
71966;BME280;59836;52.132;5.442;2022-09-13T14:26:50;101065.22;;;21.21;60.78
71966;BME280;59836;52.132;5.442;2022-09-13T14:29:20;101063.28;;;21.21;60.00
71966;BME280;59836;52.132;5.442;2022-09-13T14:31:50;101060.53;;;21.21;59.67
71966;BME280;59836;52.132;5.442;2022-09-13T14:34:27;101057.97;;;21.16;59.26
71966;BME280;59836;52.132;5.442;2022-09-13T14:36:58;101053.00;;;21.09;59.45
71966;BME280;59836;52.132;5.442;2022-09-13T14:39:27;101062.16;;;21.01;59.25
71966;BME280;59836;52.132;5.442;2022-09-13T14:42:11;101053.25;;;20.96;60.07
71966;BME280;59836;52.132;5.442;2022-09-13T14:44:49;101065.44;;;20.94;60.30
71966;BME280;59836;52.132;5.442;2022-09-13T14:47:23;101066.72;;;20.97;60.08
71966;BME280;59836;52.132;5.442;2022-09-13T14:50:04;101062.47;;;21.00;60.39
71966;BME280;59836;52.132;5.442;2022-09-13T14:52:35;101072.72;;;20.99;58.21
71966;BME280;59836;52.132;5.442;2022-09-13T14:55:12;101062.66;;;20.94;59.24
71966;BME280;59836;52.132;5.442;2022-09-13T14:57:44;101075.31;;;20.96;59.46
71966;BME280;59836;52.132;5.442;2022-09-13T15:00:17;101067.72;;;20.92;58.59
71966;BME280;59836;52.132;5.442;2022-09-13T15:02:50;101063.53;;;20.86;58.09
71966;BME280;59836;52.132;5.442;2022-09-13T15:05:23;101068.78;;;20.79;58.92
71966;BME280;59836;52.132;5.442;2022-09-13T15:07:51;101052.38;;;20.74;59.17
71966;BME280;59836;52.132;5.442;2022-09-13T15:10:28;101058.09;;;20.69;60.27
71966;BME280;59836;52.132;5.442;2022-09-13T15:20:53;101065.16;;;20.57;59.88
71966;BME280;59836;52.132;5.442;2022-09-13T15:23:26;101061.59;;;20.57;59.29
71966;BME280;59836;52.132;5.442;2022-09-13T15:26:00;101057.22;;;20.56;59.53
71966;BME280;59836;52.132;5.442;2022-09-13T15:28:55;101045.72;;;20.54;59.18
71966;BME280;59836;52.132;5.442;2022-09-13T15:31:28;101053.38;;;20.48;59.58
71966;BME280;59836;52.132;5.442;2022-09-13T15:36:48;101043.81;;;20.45;61.73
71966;BME280;59836;52.132;5.442;2022-09-13T15:39:20;101048.19;;;20.46;60.11
71966;BME280;59836;52.132;5.442;2022-09-13T15:41:59;101054.50;;;20.47;61.14
71966;BME280;59836;52.132;5.442;2022-09-13T15:44:27;101051.28;;;20.45;60.89
71966;BME280;59836;52.132;5.442;2022-09-13T15:46:58;101049.19;;;20.42;62.46
71966;BME280;59836;52.132;5.442;2022-09-13T15:49:28;101043.53;;;20.38;63.49